sensor_id;sensor_type;location;lat;lon;timestamp;P1;durP1;ratioP1;P2;durP2;ratioP2
22417;SDS011;11376;50.932;4.442;2022-08-18T00:01:38;104.40;;;42.10;;
22417;SDS011;11376;50.932;4.442;2022-08-18T00:04:06;105.18;;;43.25;;
22417;SDS011;11376;50.932;4.442;2022-08-18T00:06:32;105.45;;;42.75;;
22417;SDS011;11376;50.932;4.442;2022-08-18T00:08:59;105.07;;;41.47;;
22417;SDS011;11376;50.932;4.442;2022-08-18T00:11:26;103.60;;;41.83;;
22417;SDS011;11376;50.932;4.442;2022-08-18T00:13:54;105.90;;;41.95;;
22417;SDS011;11376;50.932;4.442;2022-08-18T00:16:19;100.32;;;39.05;;
22417;SDS011;11376;50.932;4.442;2022-08-18T00:18:45;99.38;;;41.22;;
22417;SDS011;11376;50.932;4.442;2022-08-18T00:21:11;105.78;;;41.40;;
22417;SDS011;11376;50.932;4.442;2022-08-18T00:23:36;91.32;;;38.47;;
22417;SDS011;11376;50.932;4.442;2022-08-18T00:26:02;98.63;;;39.35;;
22417;SDS011;11376;50.932;4.442;2022-08-18T00:28:28;89.43;;;37.40;;
22417;SDS011;11376;50.932;4.442;2022-08-18T00:30:54;98.28;;;38.58;;
22417;SDS011;11376;50.932;4.442;2022-08-18T00:33:20;105.10;;;39.83;;
22417;SDS011;11376;50.932;4.442;2022-08-18T00:35:46;95.80;;;39.30;;
22417;SDS011;11376;50.932;4.442;2022-08-18T00:38:11;91.03;;;37.10;;
22417;SDS011;11376;50.932;4.442;2022-08-18T00:40:38;96.55;;;37.58;;
22417;SDS011;11376;50.932;4.442;2022-08-18T00:43:15;100.25;;;37.60;;
22417;SDS011;11376;50.932;4.442;2022-08-18T00:45:51;101.25;;;40.15;;
22417;SDS011;11376;50.932;4.442;2022-08-18T00:48:17;105.80;;;38.78;;
22417;SDS011;11376;50.932;4.442;2022-08-18T00:50:53;88.07;;;37.70;;
22417;SDS011;11376;50.932;4.442;2022-08-18T00:53:26;97.30;;;38.42;;
22417;SDS011;11376;50.932;4.442;2022-08-18T00:56:02;94.78;;;37.55;;
22417;SDS011;11376;50.932;4.442;2022-08-18T00:58:40;96.85;;;37.15;;
22417;SDS011;11376;50.932;4.442;2022-08-18T01:01:14;84.50;;;35.15;;
22417;SDS011;11376;50.932;4.442;2022-08-18T01:03:43;93.90;;;37.42;;
22417;SDS011;11376;50.932;4.442;2022-08-18T01:06:21;90.93;;;36.47;;
22417;SDS011;11376;50.932;4.442;2022-08-18T01:08:51;97.90;;;38.33;;
22417;SDS011;11376;50.932;4.442;2022-08-18T01:11:18;101.07;;;40.03;;
22417;SDS011;11376;50.932;4.442;2022-08-18T01:13:43;89.50;;;38.58;;
22417;SDS011;11376;50.932;4.442;2022-08-18T01:16:09;92.50;;;38.35;;
22417;SDS011;11376;50.932;4.442;2022-08-18T01:18:53;100.82;;;39.55;;
22417;SDS011;11376;50.932;4.442;2022-08-18T01:21:40;101.82;;;41.38;;
22417;SDS011;11376;50.932;4.442;2022-08-18T01:24:25;106.65;;;40.22;;
22417;SDS011;11376;50.932;4.442;2022-08-18T01:27:13;104.57;;;40.50;;
22417;SDS011;11376;50.932;4.442;2022-08-18T01:29:46;100.30;;;40.00;;
22417;SDS011;11376;50.932;4.442;2022-08-18T01:32:13;101.47;;;41.63;;
22417;SDS011;11376;50.932;4.442;2022-08-18T01:34:45;103.88;;;42.72;;
22417;SDS011;11376;50.932;4.442;2022-08-18T01:37:13;102.05;;;39.45;;
22417;SDS011;11376;50.932;4.442;2022-08-18T01:39:42;100.28;;;41.92;;
22417;SDS011;11376;50.932;4.442;2022-08-18T01:42:08;103.97;;;42.05;;
22417;SDS011;11376;50.932;4.442;2022-08-18T01:44:34;98.65;;;41.13;;
22417;SDS011;11376;50.932;4.442;2022-08-18T01:47:00;108.50;;;42.08;;
22417;SDS011;11376;50.932;4.442;2022-08-18T01:49:25;100.53;;;41.65;;
22417;SDS011;11376;50.932;4.442;2022-08-18T01:51:52;97.32;;;39.78;;
22417;SDS011;11376;50.932;4.442;2022-08-18T01:54:19;95.05;;;42.03;;
22417;SDS011;11376;50.932;4.442;2022-08-18T01:56:46;84.47;;;38.30;;
22417;SDS011;11376;50.932;4.442;2022-08-18T01:59:13;96.57;;;41.47;;
22417;SDS011;11376;50.932;4.442;2022-08-18T02:01:43;96.07;;;39.08;;
22417;SDS011;11376;50.932;4.442;2022-08-18T02:04:10;97.50;;;39.17;;
22417;SDS011;11376;50.932;4.442;2022-08-18T02:06:36;96.82;;;40.95;;
22417;SDS011;11376;50.932;4.442;2022-08-18T02:09:02;87.72;;;39.97;;
22417;SDS011;11376;50.932;4.442;2022-08-18T02:11:28;101.05;;;39.83;;
22417;SDS011;11376;50.932;4.442;2022-08-18T02:13:54;94.28;;;38.60;;
22417;SDS011;11376;50.932;4.442;2022-08-18T02:16:19;89.93;;;38.65;;
22417;SDS011;11376;50.932;4.442;2022-08-18T02:18:45;82.30;;;37.35;;
22417;SDS011;11376;50.932;4.442;2022-08-18T02:21:12;96.03;;;41.17;;
22417;SDS011;11376;50.932;4.442;2022-08-18T02:23:39;85.20;;;37.03;;
22417;SDS011;11376;50.932;4.442;2022-08-18T02:26:07;90.25;;;38.22;;
22417;SDS011;11376;50.932;4.442;2022-08-18T02:28:35;89.43;;;38.70;;
22417;SDS011;11376;50.932;4.442;2022-08-18T02:31:07;97.20;;;39.92;;
22417;SDS011;11376;50.932;4.442;2022-08-18T02:33:35;88.53;;;38.40;;
22417;SDS011;11376;50.932;4.442;2022-08-18T02:36:01;96.03;;;38.88;;
22417;SDS011;11376;50.932;4.442;2022-08-18T02:38:27;95.82;;;39.33;;
22417;SDS011;11376;50.932;4.442;2022-08-18T02:40:55;97.28;;;39.75;;
22417;SDS011;11376;50.932;4.442;2022-08-18T02:43:21;93.78;;;37.58;;
22417;SDS011;11376;50.932;4.442;2022-08-18T02:45:47;99.28;;;39.28;;
22417;SDS011;11376;50.932;4.442;2022-08-18T02:48:13;90.45;;;37.25;;
22417;SDS011;11376;50.932;4.442;2022-08-18T02:50:38;102.07;;;37.63;;
22417;SDS011;11376;50.932;4.442;2022-08-18T02:53:11;97.25;;;39.53;;
22417;SDS011;11376;50.932;4.442;2022-08-18T02:55:44;92.38;;;37.67;;
22417;SDS011;11376;50.932;4.442;2022-08-18T02:58:10;103.93;;;40.00;;
22417;SDS011;11376;50.932;4.442;2022-08-18T03:00:37;96.25;;;38.05;;
22417;SDS011;11376;50.932;4.442;2022-08-18T03:03:03;127.15;;;47.72;;
22417;SDS011;11376;50.932;4.442;2022-08-18T03:05:28;136.77;;;49.15;;
22417;SDS011;11376;50.932;4.442;2022-08-18T03:07:54;128.02;;;46.45;;
22417;SDS011;11376;50.932;4.442;2022-08-18T03:10:20;150.77;;;45.92;;
22417;SDS011;11376;50.932;4.442;2022-08-18T03:12:46;150.20;;;45.95;;
22417;SDS011;11376;50.932;4.442;2022-08-18T03:15:11;132.77;;;41.70;;
22417;SDS011;11376;50.932;4.442;2022-08-18T03:17:37;139.18;;;41.53;;
22417;SDS011;11376;50.932;4.442;2022-08-18T03:20:04;147.25;;;45.25;;
22417;SDS011;11376;50.932;4.442;2022-08-18T03:22:30;144.00;;;43.50;;
22417;SDS011;11376;50.932;4.442;2022-08-18T03:24:56;136.85;;;42.75;;
22417;SDS011;11376;50.932;4.442;2022-08-18T03:27:21;133.82;;;41.03;;
22417;SDS011;11376;50.932;4.442;2022-08-18T03:29:47;115.10;;;39.20;;
22417;SDS011;11376;50.932;4.442;2022-08-18T03:32:12;114.90;;;38.38;;
22417;SDS011;11376;50.932;4.442;2022-08-18T03:34:38;106.82;;;37.50;;
22417;SDS011;11376;50.932;4.442;2022-08-18T03:37:04;105.10;;;37.05;;
22417;SDS011;11376;50.932;4.442;2022-08-18T03:39:29;104.72;;;37.50;;
22417;SDS011;11376;50.932;4.442;2022-08-18T03:41:55;93.38;;;35.15;;
22417;SDS011;11376;50.932;4.442;2022-08-18T03:44:22;84.43;;;34.15;;
22417;SDS011;11376;50.932;4.442;2022-08-18T03:46:48;84.38;;;33.92;;
22417;SDS011;11376;50.932;4.442;2022-08-18T03:49:14;85.20;;;33.88;;
22417;SDS011;11376;50.932;4.442;2022-08-18T03:51:42;83.72;;;34.20;;
22417;SDS011;11376;50.932;4.442;2022-08-18T03:54:10;77.57;;;32.30;;
22417;SDS011;11376;50.932;4.442;2022-08-18T03:56:40;84.50;;;33.10;;
22417;SDS011;11376;50.932;4.442;2022-08-18T03:59:08;72.10;;;32.83;;
22417;SDS011;11376;50.932;4.442;2022-08-18T04:01:39;78.57;;;32.80;;
22417;SDS011;11376;50.932;4.442;2022-08-18T04:04:07;73.22;;;30.95;;
22417;SDS011;11376;50.932;4.442;2022-08-18T04:06:36;61.85;;;28.92;;
22417;SDS011;11376;50.932;4.442;2022-08-18T04:09:06;65.45;;;29.20;;
22417;SDS011;11376;50.932;4.442;2022-08-18T04:11:34;67.10;;;30.20;;
22417;SDS011;11376;50.932;4.442;2022-08-18T04:14:01;67.30;;;30.17;;
22417;SDS011;11376;50.932;4.442;2022-08-18T04:16:27;64.20;;;30.27;;
22417;SDS011;11376;50.932;4.442;2022-08-18T04:18:56;66.95;;;29.65;;
22417;SDS011;11376;50.932;4.442;2022-08-18T04:21:25;64.60;;;30.30;;
22417;SDS011;11376;50.932;4.442;2022-08-18T04:23:51;57.95;;;27.60;;
22417;SDS011;11376;50.932;4.442;2022-08-18T04:26:16;54.83;;;27.52;;
22417;SDS011;11376;50.932;4.442;2022-08-18T04:28:44;58.30;;;28.85;;
22417;SDS011;11376;50.932;4.442;2022-08-18T04:31:11;59.83;;;29.63;;
22417;SDS011;11376;50.932;4.442;2022-08-18T04:33:38;56.58;;;27.88;;
22417;SDS011;11376;50.932;4.442;2022-08-18T04:36:06;56.47;;;28.40;;
22417;SDS011;11376;50.932;4.442;2022-08-18T04:38:34;56.70;;;27.88;;
22417;SDS011;11376;50.932;4.442;2022-08-18T04:40:59;59.17;;;29.50;;
22417;SDS011;11376;50.932;4.442;2022-08-18T04:43:25;64.25;;;30.38;;
22417;SDS011;11376;50.932;4.442;2022-08-18T04:45:51;58.50;;;28.60;;
22417;SDS011;11376;50.932;4.442;2022-08-18T04:48:16;64.55;;;30.40;;
22417;SDS011;11376;50.932;4.442;2022-08-18T04:50:42;67.82;;;31.05;;
22417;SDS011;11376;50.932;4.442;2022-08-18T04:53:08;86.05;;;33.15;;
22417;SDS011;11376;50.932;4.442;2022-08-18T04:55:53;94.90;;;33.13;;
22417;SDS011;11376;50.932;4.442;2022-08-18T04:58:20;93.72;;;34.05;;
22417;SDS011;11376;50.932;4.442;2022-08-18T05:00:55;88.20;;;34.78;;
22417;SDS011;11376;50.932;4.442;2022-08-18T05:03:22;146.63;;;35.80;;
22417;SDS011;11376;50.932;4.442;2022-08-18T05:05:53;93.13;;;34.55;;
22417;SDS011;11376;50.932;4.442;2022-08-18T05:08:22;97.22;;;34.88;;
22417;SDS011;11376;50.932;4.442;2022-08-18T05:10:52;78.55;;;33.13;;
22417;SDS011;11376;50.932;4.442;2022-08-18T05:13:21;86.97;;;32.00;;
22417;SDS011;11376;50.932;4.442;2022-08-18T05:15:53;97.88;;;35.88;;
22417;SDS011;11376;50.932;4.442;2022-08-18T05:18:20;97.88;;;31.75;;
22417;SDS011;11376;50.932;4.442;2022-08-18T05:20:48;80.88;;;31.95;;
22417;SDS011;11376;50.932;4.442;2022-08-18T05:23:15;75.05;;;31.17;;
22417;SDS011;11376;50.932;4.442;2022-08-18T05:25:41;82.10;;;32.25;;
22417;SDS011;11376;50.932;4.442;2022-08-18T05:28:07;85.82;;;35.10;;
22417;SDS011;11376;50.932;4.442;2022-08-18T05:30:33;85.45;;;34.50;;
22417;SDS011;11376;50.932;4.442;2022-08-18T05:33:00;85.53;;;33.72;;
22417;SDS011;11376;50.932;4.442;2022-08-18T05:35:35;75.95;;;33.38;;
22417;SDS011;11376;50.932;4.442;2022-08-18T05:38:19;79.35;;;32.63;;
22417;SDS011;11376;50.932;4.442;2022-08-18T05:43:34;93.53;;;33.33;;
22417;SDS011;11376;50.932;4.442;2022-08-18T05:46:02;82.00;;;34.70;;
22417;SDS011;11376;50.932;4.442;2022-08-18T05:48:30;83.95;;;33.22;;
22417;SDS011;11376;50.932;4.442;2022-08-18T05:50:56;72.65;;;31.80;;
22417;SDS011;11376;50.932;4.442;2022-08-18T05:53:24;74.70;;;32.42;;
22417;SDS011;11376;50.932;4.442;2022-08-18T05:56:09;64.53;;;29.98;;
22417;SDS011;11376;50.932;4.442;2022-08-18T05:58:55;73.15;;;31.92;;
22417;SDS011;11376;50.932;4.442;2022-08-18T06:01:33;66.35;;;29.77;;
22417;SDS011;11376;50.932;4.442;2022-08-18T06:06:54;72.35;;;32.83;;
22417;SDS011;11376;50.932;4.442;2022-08-18T06:11:55;65.60;;;30.50;;
22417;SDS011;11376;50.932;4.442;2022-08-18T06:14:29;53.80;;;27.60;;
22417;SDS011;11376;50.932;4.442;2022-08-18T06:19:55;57.97;;;27.42;;
22417;SDS011;11376;50.932;4.442;2022-08-18T06:22:29;58.47;;;27.83;;
22417;SDS011;11376;50.932;4.442;2022-08-18T06:28:05;52.95;;;26.20;;
22417;SDS011;11376;50.932;4.442;2022-08-18T06:39:11;52.47;;;26.60;;
22417;SDS011;11376;50.932;4.442;2022-08-18T06:41:43;55.50;;;25.95;;
22417;SDS011;11376;50.932;4.442;2022-08-18T06:44:18;66.40;;;30.25;;
22417;SDS011;11376;50.932;4.442;2022-08-18T06:51:54;58.58;;;28.13;;
22417;SDS011;11376;50.932;4.442;2022-08-18T06:56:46;48.75;;;26.90;;
22417;SDS011;11376;50.932;4.442;2022-08-18T07:01:55;43.90;;;22.85;;
22417;SDS011;11376;50.932;4.442;2022-08-18T07:04:30;44.97;;;24.30;;
22417;SDS011;11376;50.932;4.442;2022-08-18T07:10:06;41.03;;;21.98;;
22417;SDS011;11376;50.932;4.442;2022-08-18T07:13:05;42.88;;;21.30;;
22417;SDS011;11376;50.932;4.442;2022-08-18T07:15:42;39.33;;;20.90;;
22417;SDS011;11376;50.932;4.442;2022-08-18T07:18:10;42.55;;;23.63;;
22417;SDS011;11376;50.932;4.442;2022-08-18T07:20:40;37.35;;;20.60;;
22417;SDS011;11376;50.932;4.442;2022-08-18T07:23:06;34.10;;;18.95;;
22417;SDS011;11376;50.932;4.442;2022-08-18T07:25:39;35.50;;;19.33;;
22417;SDS011;11376;50.932;4.442;2022-08-18T07:28:15;29.88;;;17.67;;
22417;SDS011;11376;50.932;4.442;2022-08-18T07:34:00;35.08;;;19.75;;
22417;SDS011;11376;50.932;4.442;2022-08-18T07:36:33;37.25;;;19.38;;
22417;SDS011;11376;50.932;4.442;2022-08-18T07:39:13;30.70;;;18.23;;
22417;SDS011;11376;50.932;4.442;2022-08-18T07:42:09;26.25;;;14.95;;
22417;SDS011;11376;50.932;4.442;2022-08-18T07:47:44;22.42;;;12.82;;
22417;SDS011;11376;50.932;4.442;2022-08-18T07:50:18;25.38;;;14.13;;
22417;SDS011;11376;50.932;4.442;2022-08-18T07:57:47;27.95;;;13.10;;
22417;SDS011;11376;50.932;4.442;2022-08-18T08:00:22;24.58;;;13.02;;
22417;SDS011;11376;50.932;4.442;2022-08-18T08:14:11;15.32;;;9.10;;
22417;SDS011;11376;50.932;4.442;2022-08-18T08:19:22;15.55;;;7.05;;
22417;SDS011;11376;50.932;4.442;2022-08-18T08:22:00;10.90;;;6.35;;
22417;SDS011;11376;50.932;4.442;2022-08-18T08:27:17;12.05;;;7.05;;
22417;SDS011;11376;50.932;4.442;2022-08-18T08:29:57;10.15;;;6.00;;
22417;SDS011;11376;50.932;4.442;2022-08-18T08:32:31;11.52;;;6.18;;
22417;SDS011;11376;50.932;4.442;2022-08-18T08:35:20;12.52;;;6.03;;
22417;SDS011;11376;50.932;4.442;2022-08-18T08:37:55;10.90;;;6.68;;
22417;SDS011;11376;50.932;4.442;2022-08-18T08:40:28;11.00;;;6.18;;
22417;SDS011;11376;50.932;4.442;2022-08-18T08:43:14;9.63;;;5.47;;
22417;SDS011;11376;50.932;4.442;2022-08-18T08:45:47;12.32;;;7.53;;
22417;SDS011;11376;50.932;4.442;2022-08-18T08:48:23;16.30;;;8.68;;
22417;SDS011;11376;50.932;4.442;2022-08-18T08:50:53;12.25;;;7.25;;
22417;SDS011;11376;50.932;4.442;2022-08-18T08:53:24;9.45;;;6.18;;
22417;SDS011;11376;50.932;4.442;2022-08-18T08:56:13;13.63;;;7.70;;
22417;SDS011;11376;50.932;4.442;2022-08-18T08:59:15;11.43;;;6.50;;
22417;SDS011;11376;50.932;4.442;2022-08-18T09:04:30;11.93;;;6.95;;
22417;SDS011;11376;50.932;4.442;2022-08-18T09:10:59;12.50;;;7.13;;
22417;SDS011;11376;50.932;4.442;2022-08-18T09:13:23;10.02;;;5.10;;
22417;SDS011;11376;50.932;4.442;2022-08-18T09:22:06;7.82;;;4.43;;
22417;SDS011;11376;50.932;4.442;2022-08-18T09:24:55;8.15;;;4.25;;
22417;SDS011;11376;50.932;4.442;2022-08-18T09:29:57;7.82;;;3.90;;
22417;SDS011;11376;50.932;4.442;2022-08-18T09:37:55;6.32;;;3.75;;
22417;SDS011;11376;50.932;4.442;2022-08-18T09:40:49;6.35;;;3.05;;
22417;SDS011;11376;50.932;4.442;2022-08-18T09:51:48;4.40;;;2.45;;
22417;SDS011;11376;50.932;4.442;2022-08-18T09:54:16;7.70;;;3.20;;
22417;SDS011;11376;50.932;4.442;2022-08-18T10:01:56;6.30;;;3.30;;
22417;SDS011;11376;50.932;4.442;2022-08-18T10:04:24;6.28;;;4.32;;
22417;SDS011;11376;50.932;4.442;2022-08-18T10:06:52;6.15;;;3.30;;
22417;SDS011;11376;50.932;4.442;2022-08-18T10:14:54;6.75;;;3.67;;
22417;SDS011;11376;50.932;4.442;2022-08-18T10:17:43;4.40;;;2.80;;
22417;SDS011;11376;50.932;4.442;2022-08-18T10:26:25;6.22;;;3.95;;
22417;SDS011;11376;50.932;4.442;2022-08-18T10:37:36;6.88;;;3.70;;
22417;SDS011;11376;50.932;4.442;2022-08-18T10:39:58;4.97;;;2.97;;
22417;SDS011;11376;50.932;4.442;2022-08-18T10:42:41;5.10;;;2.83;;
22417;SDS011;11376;50.932;4.442;2022-08-18T10:45:30;4.53;;;2.97;;
22417;SDS011;11376;50.932;4.442;2022-08-18T10:48:21;6.47;;;4.15;;
22417;SDS011;11376;50.932;4.442;2022-08-18T10:50:56;7.03;;;3.47;;
22417;SDS011;11376;50.932;4.442;2022-08-18T11:04:40;9.55;;;6.13;;
22417;SDS011;11376;50.932;4.442;2022-08-18T11:07:12;7.70;;;5.55;;
22417;SDS011;11376;50.932;4.442;2022-08-18T11:09:52;8.32;;;6.03;;
22417;SDS011;11376;50.932;4.442;2022-08-18T11:15:15;4.22;;;2.83;;
22417;SDS011;11376;50.932;4.442;2022-08-18T11:17:59;9.20;;;5.35;;
22417;SDS011;11376;50.932;4.442;2022-08-18T11:20:43;7.55;;;4.88;;
22417;SDS011;11376;50.932;4.442;2022-08-18T11:23:13;4.35;;;3.15;;
22417;SDS011;11376;50.932;4.442;2022-08-18T11:25:41;7.05;;;4.47;;
22417;SDS011;11376;50.932;4.442;2022-08-18T11:28:15;7.13;;;4.40;;
22417;SDS011;11376;50.932;4.442;2022-08-18T11:30:43;7.97;;;5.80;;
22417;SDS011;11376;50.932;4.442;2022-08-18T11:33:15;7.00;;;5.97;;
22417;SDS011;11376;50.932;4.442;2022-08-18T11:35:54;7.57;;;5.38;;
22417;SDS011;11376;50.932;4.442;2022-08-18T11:38:24;7.13;;;5.38;;
22417;SDS011;11376;50.932;4.442;2022-08-18T11:43:42;6.97;;;5.60;;
22417;SDS011;11376;50.932;4.442;2022-08-18T11:46:30;7.25;;;4.97;;
22417;SDS011;11376;50.932;4.442;2022-08-18T11:48:57;8.32;;;5.22;;
22417;SDS011;11376;50.932;4.442;2022-08-18T11:51:31;8.23;;;7.22;;
22417;SDS011;11376;50.932;4.442;2022-08-18T11:56:46;7.78;;;5.43;;
22417;SDS011;11376;50.932;4.442;2022-08-18T12:01:50;11.35;;;5.53;;
22417;SDS011;11376;50.932;4.442;2022-08-18T12:09:25;11.55;;;7.03;;
22417;SDS011;11376;50.932;4.442;2022-08-18T12:17:47;13.00;;;9.82;;
22417;SDS011;11376;50.932;4.442;2022-08-18T12:20:13;11.77;;;8.27;;
22417;SDS011;11376;50.932;4.442;2022-08-18T12:22:40;9.95;;;8.23;;
22417;SDS011;11376;50.932;4.442;2022-08-18T12:25:09;11.38;;;9.18;;
22417;SDS011;11376;50.932;4.442;2022-08-18T12:27:40;9.57;;;7.20;;
22417;SDS011;11376;50.932;4.442;2022-08-18T12:30:06;10.77;;;8.00;;
22417;SDS011;11376;50.932;4.442;2022-08-18T12:32:34;9.73;;;5.40;;
22417;SDS011;11376;50.932;4.442;2022-08-18T12:35:01;6.65;;;4.70;;
22417;SDS011;11376;50.932;4.442;2022-08-18T12:37:28;4.93;;;4.00;;
22417;SDS011;11376;50.932;4.442;2022-08-18T12:39:54;7.15;;;5.90;;
22417;SDS011;11376;50.932;4.442;2022-08-18T12:42:22;8.93;;;4.85;;
22417;SDS011;11376;50.932;4.442;2022-08-18T12:44:48;8.55;;;7.10;;
22417;SDS011;11376;50.932;4.442;2022-08-18T12:47:16;10.02;;;8.02;;
22417;SDS011;11376;50.932;4.442;2022-08-18T12:49:46;8.50;;;7.70;;
22417;SDS011;11376;50.932;4.442;2022-08-18T12:52:12;5.93;;;5.20;;
22417;SDS011;11376;50.932;4.442;2022-08-18T12:54:38;7.88;;;6.25;;
22417;SDS011;11376;50.932;4.442;2022-08-18T12:57:08;5.75;;;4.22;;
22417;SDS011;11376;50.932;4.442;2022-08-18T12:59:37;8.10;;;7.13;;
22417;SDS011;11376;50.932;4.442;2022-08-18T13:02:03;7.18;;;5.80;;
22417;SDS011;11376;50.932;4.442;2022-08-18T13:04:28;5.40;;;4.70;;
22417;SDS011;11376;50.932;4.442;2022-08-18T13:06:55;8.38;;;6.28;;
22417;SDS011;11376;50.932;4.442;2022-08-18T13:09:23;9.48;;;8.48;;
22417;SDS011;11376;50.932;4.442;2022-08-18T13:11:49;4.97;;;4.10;;
22417;SDS011;11376;50.932;4.442;2022-08-18T13:14:15;9.40;;;6.80;;
22417;SDS011;11376;50.932;4.442;2022-08-18T13:16:41;11.65;;;10.45;;
22417;SDS011;11376;50.932;4.442;2022-08-18T13:19:09;10.43;;;8.68;;
22417;SDS011;11376;50.932;4.442;2022-08-18T13:21:35;9.15;;;6.82;;
22417;SDS011;11376;50.932;4.442;2022-08-18T13:24:01;7.45;;;6.57;;
22417;SDS011;11376;50.932;4.442;2022-08-18T13:26:29;7.75;;;6.72;;
22417;SDS011;11376;50.932;4.442;2022-08-18T13:28:56;6.13;;;5.00;;
22417;SDS011;11376;50.932;4.442;2022-08-18T13:31:23;7.63;;;5.53;;
22417;SDS011;11376;50.932;4.442;2022-08-18T13:33:53;10.55;;;8.10;;
22417;SDS011;11376;50.932;4.442;2022-08-18T13:36:20;10.48;;;7.80;;
22417;SDS011;11376;50.932;4.442;2022-08-18T13:38:47;7.32;;;5.55;;
22417;SDS011;11376;50.932;4.442;2022-08-18T13:41:16;9.38;;;6.78;;
22417;SDS011;11376;50.932;4.442;2022-08-18T13:43:43;13.00;;;11.00;;
22417;SDS011;11376;50.932;4.442;2022-08-18T13:46:11;9.52;;;7.28;;
22417;SDS011;11376;50.932;4.442;2022-08-18T13:48:41;7.38;;;5.75;;
22417;SDS011;11376;50.932;4.442;2022-08-18T13:51:08;9.23;;;6.95;;
22417;SDS011;11376;50.932;4.442;2022-08-18T13:53:38;7.35;;;6.00;;
22417;SDS011;11376;50.932;4.442;2022-08-18T13:56:04;8.23;;;6.45;;
22417;SDS011;11376;50.932;4.442;2022-08-18T13:58:30;5.47;;;4.88;;
22417;SDS011;11376;50.932;4.442;2022-08-18T14:00:59;6.43;;;5.40;;
22417;SDS011;11376;50.932;4.442;2022-08-18T14:03:27;7.63;;;5.95;;
22417;SDS011;11376;50.932;4.442;2022-08-18T14:05:53;6.45;;;5.20;;
22417;SDS011;11376;50.932;4.442;2022-08-18T14:08:22;5.40;;;4.70;;
22417;SDS011;11376;50.932;4.442;2022-08-18T14:10:52;5.57;;;4.93;;
22417;SDS011;11376;50.932;4.442;2022-08-18T14:13:20;5.10;;;4.60;;
22417;SDS011;11376;50.932;4.442;2022-08-18T14:15:47;5.00;;;4.15;;
22417;SDS011;11376;50.932;4.442;2022-08-18T14:18:13;6.05;;;4.50;;
22417;SDS011;11376;50.932;4.442;2022-08-18T14:20:39;7.20;;;5.32;;
22417;SDS011;11376;50.932;4.442;2022-08-18T14:23:23;7.45;;;5.35;;
22417;SDS011;11376;50.932;4.442;2022-08-18T14:26:08;9.18;;;5.40;;
22417;SDS011;11376;50.932;4.442;2022-08-18T14:28:53;5.38;;;4.00;;
22417;SDS011;11376;50.932;4.442;2022-08-18T14:31:19;5.75;;;4.30;;
22417;SDS011;11376;50.932;4.442;2022-08-18T14:33:45;7.63;;;4.68;;
22417;SDS011;11376;50.932;4.442;2022-08-18T14:36:11;5.50;;;4.13;;
22417;SDS011;11376;50.932;4.442;2022-08-18T14:38:38;5.78;;;4.20;;
22417;SDS011;11376;50.932;4.442;2022-08-18T14:41:06;10.27;;;4.90;;
22417;SDS011;11376;50.932;4.442;2022-08-18T14:43:33;5.88;;;4.53;;
22417;SDS011;11376;50.932;4.442;2022-08-18T14:46:00;5.30;;;4.80;;
22417;SDS011;11376;50.932;4.442;2022-08-18T14:48:26;5.55;;;4.22;;
22417;SDS011;11376;50.932;4.442;2022-08-18T14:50:54;4.78;;;3.80;;
22417;SDS011;11376;50.932;4.442;2022-08-18T14:53:23;5.70;;;3.47;;
22417;SDS011;11376;50.932;4.442;2022-08-18T14:55:51;4.70;;;3.00;;
22417;SDS011;11376;50.932;4.442;2022-08-18T14:58:19;6.32;;;3.50;;
22417;SDS011;11376;50.932;4.442;2022-08-18T15:00:45;5.70;;;3.53;;
22417;SDS011;11376;50.932;4.442;2022-08-18T15:03:11;5.13;;;3.15;;
22417;SDS011;11376;50.932;4.442;2022-08-18T15:05:37;5.35;;;3.67;;
22417;SDS011;11376;50.932;4.442;2022-08-18T15:08:03;4.88;;;3.55;;
22417;SDS011;11376;50.932;4.442;2022-08-18T15:10:29;4.68;;;2.92;;
22417;SDS011;11376;50.932;4.442;2022-08-18T15:12:55;4.85;;;3.90;;
22417;SDS011;11376;50.932;4.442;2022-08-18T15:15:21;4.85;;;4.00;;
22417;SDS011;11376;50.932;4.442;2022-08-18T15:17:49;5.15;;;3.30;;
22417;SDS011;11376;50.932;4.442;2022-08-18T15:20:15;8.10;;;3.75;;
22417;SDS011;11376;50.932;4.442;2022-08-18T15:22:42;5.05;;;3.97;;
22417;SDS011;11376;50.932;4.442;2022-08-18T15:25:27;5.18;;;3.97;;
22417;SDS011;11376;50.932;4.442;2022-08-18T15:28:05;6.47;;;3.60;;
22417;SDS011;11376;50.932;4.442;2022-08-18T15:30:51;7.63;;;3.40;;
22417;SDS011;11376;50.932;4.442;2022-08-18T15:33:17;4.60;;;3.30;;
22417;SDS011;11376;50.932;4.442;2022-08-18T15:35:45;7.18;;;3.72;;
22417;SDS011;11376;50.932;4.442;2022-08-18T15:38:18;4.82;;;3.40;;
22417;SDS011;11376;50.932;4.442;2022-08-18T15:40:47;5.93;;;3.33;;
22417;SDS011;11376;50.932;4.442;2022-08-18T15:43:14;9.45;;;4.25;;
22417;SDS011;11376;50.932;4.442;2022-08-18T15:45:42;5.70;;;3.28;;
22417;SDS011;11376;50.932;4.442;2022-08-18T15:48:11;8.27;;;2.90;;
22417;SDS011;11376;50.932;4.442;2022-08-18T15:50:37;4.97;;;3.00;;
22417;SDS011;11376;50.932;4.442;2022-08-18T15:53:04;5.30;;;3.20;;
22417;SDS011;11376;50.932;4.442;2022-08-18T15:55:31;6.43;;;4.05;;
22417;SDS011;11376;50.932;4.442;2022-08-18T15:57:58;6.88;;;4.00;;
22417;SDS011;11376;50.932;4.442;2022-08-18T16:00:26;6.70;;;4.00;;
22417;SDS011;11376;50.932;4.442;2022-08-18T16:03:02;7.72;;;4.72;;
22417;SDS011;11376;50.932;4.442;2022-08-18T16:05:31;24.98;;;15.57;;
22417;SDS011;11376;50.932;4.442;2022-08-18T16:08:02;16.95;;;8.80;;
22417;SDS011;11376;50.932;4.442;2022-08-18T16:10:31;10.68;;;5.68;;
22417;SDS011;11376;50.932;4.442;2022-08-18T16:13:00;8.70;;;3.90;;
22417;SDS011;11376;50.932;4.442;2022-08-18T16:15:28;9.85;;;6.22;;
22417;SDS011;11376;50.932;4.442;2022-08-18T16:17:58;9.55;;;4.22;;
22417;SDS011;11376;50.932;4.442;2022-08-18T16:20:24;8.73;;;5.55;;
22417;SDS011;11376;50.932;4.442;2022-08-18T16:22:49;8.88;;;5.57;;
22417;SDS011;11376;50.932;4.442;2022-08-18T16:25:16;8.00;;;4.55;;
22417;SDS011;11376;50.932;4.442;2022-08-18T16:27:42;9.15;;;5.28;;
22417;SDS011;11376;50.932;4.442;2022-08-18T16:30:13;9.68;;;5.55;;
22417;SDS011;11376;50.932;4.442;2022-08-18T16:32:41;8.65;;;3.70;;
22417;SDS011;11376;50.932;4.442;2022-08-18T16:35:07;8.85;;;3.30;;
22417;SDS011;11376;50.932;4.442;2022-08-18T16:37:33;7.20;;;4.55;;
22417;SDS011;11376;50.932;4.442;2022-08-18T16:39:59;19.60;;;10.63;;
22417;SDS011;11376;50.932;4.442;2022-08-18T16:42:25;17.58;;;8.98;;
22417;SDS011;11376;50.932;4.442;2022-08-18T16:44:56;4.88;;;2.95;;
22417;SDS011;11376;50.932;4.442;2022-08-18T16:47:22;3.60;;;2.13;;
22417;SDS011;11376;50.932;4.442;2022-08-18T16:49:48;4.78;;;3.00;;
22417;SDS011;11376;50.932;4.442;2022-08-18T16:52:15;5.00;;;2.63;;
22417;SDS011;11376;50.932;4.442;2022-08-18T16:54:42;3.42;;;2.40;;
22417;SDS011;11376;50.932;4.442;2022-08-18T16:57:08;4.30;;;2.90;;
22417;SDS011;11376;50.932;4.442;2022-08-18T16:59:35;4.65;;;3.15;;
22417;SDS011;11376;50.932;4.442;2022-08-18T17:02:20;6.63;;;3.60;;
22417;SDS011;11376;50.932;4.442;2022-08-18T17:05:04;3.97;;;2.55;;
22417;SDS011;11376;50.932;4.442;2022-08-18T17:07:32;4.47;;;2.65;;
22417;SDS011;11376;50.932;4.442;2022-08-18T17:10:01;8.43;;;4.97;;
22417;SDS011;11376;50.932;4.442;2022-08-18T17:12:29;7.82;;;3.10;;
22417;SDS011;11376;50.932;4.442;2022-08-18T17:14:55;4.50;;;2.75;;
22417;SDS011;11376;50.932;4.442;2022-08-18T17:17:21;5.60;;;2.97;;
22417;SDS011;11376;50.932;4.442;2022-08-18T17:19:48;6.15;;;2.83;;